createdAt,value
2022-12-31T00:00:15.334Z,16.90
2022-12-31T00:04:02.431Z,14.60
2022-12-31T00:11:34.676Z,13.80
2022-12-31T00:14:57.953Z,13.60
2022-12-31T00:18:58.636Z,14.20
2022-12-31T00:22:22.108Z,11.40
2022-12-31T00:26:24.024Z,15.70
2022-12-31T00:29:49.651Z,13.50
2022-12-31T00:33:45.498Z,15.00
2022-12-31T00:37:08.885Z,15.90
2022-12-31T00:41:06.225Z,16.70
2022-12-31T00:44:29.286Z,19.40
2022-12-31T00:48:06.992Z,19.20
2022-12-31T00:51:46.769Z,18.50
2022-12-31T00:55:41.463Z,19.50
2022-12-31T00:59:04.982Z,16.70
2022-12-31T01:03:01.752Z,19.00
2022-12-31T01:06:25.576Z,22.30
2022-12-31T01:10:03.325Z,17.10
2022-12-31T01:13:40.783Z,21.90
2022-12-31T01:17:18.415Z,20.10
2022-12-31T01:21:16.316Z,23.00
2022-12-31T01:24:58.719Z,22.60
2022-12-31T01:28:23.013Z,19.90
2022-12-31T01:32:18.291Z,19.30
2022-12-31T01:35:41.392Z,23.60
2022-12-31T01:39:19.220Z,22.20
2022-12-31T01:43:18.535Z,21.20
2022-12-31T01:46:47.042Z,21.30
2022-12-31T01:50:32.396Z,20.50
2022-12-31T01:53:59.194Z,21.10
2022-12-31T01:57:36.437Z,16.90
2022-12-31T02:01:32.872Z,18.90
2022-12-31T02:04:59.011Z,19.70
2022-12-31T02:08:52.783Z,17.60
2022-12-31T02:12:35.008Z,17.70
2022-12-31T02:16:13.923Z,15.10
2022-12-31T02:20:34.224Z,18.30
2022-12-31T02:24:14.117Z,15.70
2022-12-31T02:28:12.182Z,14.00
2022-12-31T02:32:05.226Z,16.00
2022-12-31T02:35:57.418Z,16.80
2022-12-31T02:39:21.871Z,16.20
2022-12-31T02:43:17.325Z,17.90
2022-12-31T02:46:51.693Z,15.80
2022-12-31T02:50:55.680Z,16.70
2022-12-31T02:54:43.922Z,15.60
2022-12-31T02:58:16.768Z,15.50
2022-12-31T03:02:09.324Z,16.70
2022-12-31T03:05:53.372Z,15.70
2022-12-31T03:09:36.917Z,15.10
2022-12-31T03:13:19.316Z,15.00
2022-12-31T03:16:44.553Z,12.10
2022-12-31T03:20:49.036Z,11.40
2022-12-31T03:24:31.967Z,10.40
2022-12-31T03:27:56.247Z,9.20
2022-12-31T03:31:33.564Z,10.80
2022-12-31T03:35:32.644Z,9.10
2022-12-31T03:39:15.233Z,8.40
2022-12-31T03:42:38.685Z,9.00
2022-12-31T03:46:16.291Z,7.80
2022-12-31T03:50:15.381Z,7.50
2022-12-31T03:53:38.628Z,7.50
2022-12-31T03:57:16.550Z,6.40
2022-12-31T04:00:54.224Z,6.80
2022-12-31T04:04:31.796Z,6.80
2022-12-31T04:08:09.546Z,7.10
2022-12-31T04:11:47.047Z,6.30
2022-12-31T04:15:43.788Z,6.60
2022-12-31T04:19:07.518Z,6.40
2022-12-31T04:22:44.773Z,7.50
2022-12-31T04:26:22.261Z,6.70
2022-12-31T04:30:18.904Z,6.50
2022-12-31T04:33:42.401Z,5.80
2022-12-31T04:37:39.838Z,6.20
2022-12-31T04:41:20.814Z,5.50
2022-12-31T04:45:04.535Z,6.50
2022-12-31T04:48:27.639Z,6.40
2022-12-31T04:52:24.680Z,5.80
2022-12-31T04:55:48.107Z,5.60
2022-12-31T04:59:25.760Z,6.40
2022-12-31T05:03:24.586Z,6.40
2022-12-31T05:06:47.823Z,7.30
2022-12-31T05:10:47.569Z,6.20
2022-12-31T05:14:29.371Z,6.20
2022-12-31T05:17:52.442Z,4.90
2022-12-31T05:21:30.151Z,6.40
2022-12-31T05:25:27.751Z,4.90
2022-12-31T05:28:56.505Z,6.10
2022-12-31T05:32:47.525Z,6.10
2022-12-31T05:36:11.543Z,6.50
2022-12-31T05:40:08.937Z,4.60
2022-12-31T05:43:33.626Z,5.80
2022-12-31T05:47:10.743Z,5.10
2022-12-31T05:50:49.576Z,4.60
2022-12-31T05:54:26.152Z,4.70
2022-12-31T05:58:03.575Z,4.70
2022-12-31T06:01:41.535Z,4.50
2022-12-31T06:05:42.698Z,5.60
2022-12-31T06:09:25.002Z,5.00
2022-12-31T06:12:47.836Z,6.80
2022-12-31T06:16:25.866Z,5.90
2022-12-31T06:20:08.843Z,6.60
2022-12-31T06:23:41.324Z,6.70
2022-12-31T06:27:18.606Z,5.70
2022-12-31T06:31:01.457Z,5.10
2022-12-31T06:34:34.193Z,5.80
2022-12-31T06:38:33.471Z,6.30
2022-12-31T06:41:56.648Z,5.00
2022-12-31T06:45:34.668Z,5.60
2022-12-31T06:49:31.004Z,4.50
2022-12-31T06:52:54.386Z,4.80
2022-12-31T06:56:50.957Z,5.00
2022-12-31T07:00:33.789Z,4.70
2022-12-31T07:04:19.236Z,5.20
2022-12-31T07:07:54.580Z,5.40
2022-12-31T07:11:58.299Z,6.20
2022-12-31T07:15:43.909Z,6.90
2022-12-31T07:19:32.365Z,6.40
2022-12-31T07:23:15.645Z,6.10
2022-12-31T07:26:54.300Z,6.50
2022-12-31T07:30:29.149Z,5.50
2022-12-31T07:34:38.734Z,4.50
2022-12-31T07:38:14.753Z,6.20
2022-12-31T07:42:13.451Z,8.10
2022-12-31T07:46:10.335Z,7.70
2022-12-31T07:49:34.248Z,6.90
2022-12-31T07:53:12.275Z,6.70
2022-12-31T07:57:11.452Z,5.90
2022-12-31T08:00:56.540Z,7.10
2022-12-31T08:04:29.361Z,6.50
2022-12-31T08:08:19.634Z,7.00
2022-12-31T08:12:03.395Z,6.40
2022-12-31T08:15:46.773Z,5.40
2022-12-31T08:19:31.684Z,5.90
2022-12-31T08:23:19.775Z,8.90
2022-12-31T08:26:53.225Z,6.50
2022-12-31T08:31:00.259Z,6.40
2022-12-31T08:35:02.730Z,6.00
2022-12-31T08:38:29.559Z,5.90
2022-12-31T08:42:08.529Z,6.40
2022-12-31T08:45:49.308Z,5.50
2022-12-31T08:49:41.632Z,5.90
2022-12-31T08:53:05.303Z,4.70
2022-12-31T08:57:10.602Z,6.70
2022-12-31T09:00:37.539Z,5.00
2022-12-31T09:04:26.295Z,6.00
2022-12-31T09:08:21.192Z,8.80
2022-12-31T09:12:16.825Z,19.40
2022-12-31T09:15:43.890Z,15.00
2022-12-31T09:19:17.678Z,12.00
2022-12-31T09:23:14.729Z,6.70
2022-12-31T09:27:09.754Z,6.20
2022-12-31T09:30:46.741Z,4.70
2022-12-31T09:34:30.161Z,4.60
2022-12-31T09:38:22.010Z,8.80
2022-12-31T09:42:19.154Z,11.40
2022-12-31T09:46:19.959Z,8.10
2022-12-31T09:50:24.790Z,8.50
2022-12-31T09:54:19.308Z,5.90
2022-12-31T09:58:17.524Z,6.10
2022-12-31T10:02:29.086Z,4.60
2022-12-31T10:06:04.939Z,6.10
2022-12-31T10:10:11.573Z,7.40
2022-12-31T10:13:41.480Z,5.90
2022-12-31T10:17:27.016Z,6.40
2022-12-31T10:21:16.970Z,4.10
2022-12-31T10:25:19.290Z,5.00
2022-12-31T10:29:04.842Z,4.50
2022-12-31T10:33:07.471Z,4.20
2022-12-31T10:36:57.573Z,3.90
2022-12-31T10:40:30.223Z,4.50
2022-12-31T10:44:36.615Z,4.00
2022-12-31T10:48:47.806Z,4.20
2022-12-31T10:52:48.781Z,4.10
2022-12-31T10:56:37.516Z,3.40
2022-12-31T11:00:03.706Z,4.10
2022-12-31T11:04:29.270Z,4.30
2022-12-31T11:08:11.734Z,3.70
2022-12-31T11:11:50.793Z,3.50
2022-12-31T11:15:21.341Z,3.70
2022-12-31T11:19:04.951Z,5.00
2022-12-31T11:22:55.258Z,4.70
2022-12-31T11:26:54.131Z,4.50
2022-12-31T11:30:41.566Z,4.80
2022-12-31T11:34:27.323Z,5.00
2022-12-31T11:38:04.796Z,8.50
2022-12-31T11:42:15.858Z,5.50
2022-12-31T11:46:23.139Z,6.00
2022-12-31T11:50:30.452Z,7.10
2022-12-31T11:54:45.161Z,7.80
2022-12-31T11:58:20.500Z,6.00
2022-12-31T12:01:56.574Z,5.80
2022-12-31T12:05:44.018Z,7.70
2022-12-31T12:09:14.382Z,6.80
2022-12-31T12:12:46.239Z,5.50
2022-12-31T12:16:41.569Z,4.40
2022-12-31T12:20:19.628Z,4.30
2022-12-31T12:24:19.224Z,4.40
2022-12-31T12:27:43.801Z,5.00
2022-12-31T12:31:24.015Z,8.60
2022-12-31T12:35:00.159Z,5.90
2022-12-31T12:38:37.622Z,5.40
2022-12-31T12:42:33.321Z,7.40
2022-12-31T12:46:27.815Z,6.00
2022-12-31T12:50:21.693Z,4.70
2022-12-31T12:54:14.261Z,5.20
2022-12-31T12:57:59.891Z,6.10
2022-12-31T13:01:52.495Z,5.20
2022-12-31T13:05:32.371Z,7.00
2022-12-31T13:09:21.956Z,5.70
2022-12-31T13:13:23.215Z,5.00
2022-12-31T13:17:26.987Z,5.80
2022-12-31T13:20:59.456Z,39.10
2022-12-31T13:24:51.722Z,14.00
2022-12-31T13:28:41.220Z,11.50
2022-12-31T13:32:41.714Z,11.40
2022-12-31T13:36:28.940Z,8.20
2022-12-31T13:40:01.311Z,7.60
2022-12-31T13:44:08.164Z,10.10
2022-12-31T13:47:50.313Z,8.60
2022-12-31T13:52:00.535Z,6.50
2022-12-31T13:55:30.856Z,7.30
2022-12-31T13:59:28.327Z,6.80
2022-12-31T14:03:20.070Z,15.40
2022-12-31T14:07:24.239Z,9.60
2022-12-31T14:11:20.864Z,5.90
2022-12-31T14:15:21.864Z,8.30
2022-12-31T14:19:43.267Z,6.80
2022-12-31T14:23:34.432Z,15.00
2022-12-31T14:27:04.240Z,25.50
2022-12-31T14:31:11.776Z,11.50
2022-12-31T14:35:26.555Z,7.60
2022-12-31T14:39:16.491Z,29.40
2022-12-31T14:43:01.237Z,10.70
2022-12-31T14:46:36.140Z,8.10
2022-12-31T14:50:26.416Z,24.30
2022-12-31T14:54:34.174Z,9.10
2022-12-31T14:58:27.244Z,7.00
2022-12-31T15:01:46.601Z,14.30
2022-12-31T15:05:51.841Z,19.50
2022-12-31T15:09:43.280Z,9.30
2022-12-31T15:13:13.834Z,7.10
2022-12-31T15:17:49.686Z,8.80
2022-12-31T15:22:02.513Z,10.70
2022-12-31T15:25:36.810Z,8.40
2022-12-31T15:29:27.284Z,9.20
2022-12-31T15:32:54.980Z,12.10
2022-12-31T15:36:54.641Z,8.90
2022-12-31T15:40:20.922Z,9.70
2022-12-31T15:44:27.866Z,12.70
2022-12-31T15:48:00.586Z,15.40
2022-12-31T15:51:32.973Z,9.60
2022-12-31T15:55:08.578Z,11.30
2022-12-31T15:58:47.927Z,15.00
2022-12-31T16:02:25.987Z,20.10
2022-12-31T16:06:18.454Z,14.50
2022-12-31T16:10:03.388Z,12.40
2022-12-31T16:13:49.595Z,10.10
2022-12-31T16:17:30.524Z,9.30
2022-12-31T16:20:54.996Z,8.00
2022-12-31T16:24:37.450Z,6.50
2022-12-31T16:28:31.175Z,15.40
2022-12-31T16:32:16.590Z,19.60
2022-12-31T16:36:04.477Z,19.90
2022-12-31T16:39:56.239Z,13.90
2022-12-31T16:43:29.470Z,14.10
2022-12-31T16:47:01.784Z,8.80
2022-12-31T16:50:56.108Z,31.70
2022-12-31T16:54:24.365Z,11.50
2022-12-31T16:58:28.563Z,12.20
2022-12-31T17:02:19.672Z,22.20
2022-12-31T17:05:57.938Z,25.50
2022-12-31T17:09:33.697Z,12.80
2022-12-31T17:13:28.073Z,11.00
2022-12-31T17:17:07.799Z,14.90
2022-12-31T17:20:33.862Z,9.30
2022-12-31T17:24:29.305Z,11.40
2022-12-31T17:27:56.563Z,13.20
2022-12-31T17:31:32.155Z,14.00
2022-12-31T17:35:37.095Z,9.20
2022-12-31T17:39:17.676Z,10.50
2022-12-31T17:42:41.608Z,13.80
2022-12-31T17:46:20.536Z,15.00
2022-12-31T17:50:26.971Z,13.60
2022-12-31T17:53:50.268Z,9.00
2022-12-31T17:57:55.855Z,7.70
2022-12-31T18:01:37.975Z,9.00
2022-12-31T18:05:01.301Z,16.00
2022-12-31T18:08:39.255Z,13.10
2022-12-31T18:12:17.461Z,9.80
2022-12-31T18:16:15.708Z,16.00
2022-12-31T18:20:03.504Z,12.40
2022-12-31T18:23:45.564Z,16.60
2022-12-31T18:27:16.589Z,13.10
2022-12-31T18:30:48.001Z,9.90
2022-12-31T18:34:24.193Z,10.10
2022-12-31T18:38:20.977Z,10.00
2022-12-31T18:41:49.442Z,11.40
2022-12-31T18:45:41.331Z,9.80
2022-12-31T18:49:05.099Z,8.90
2022-12-31T18:52:42.924Z,8.80
2022-12-31T18:56:21.872Z,9.70
2022-12-31T19:00:18.145Z,9.10
2022-12-31T19:03:41.581Z,8.70
2022-12-31T19:07:19.434Z,6.60
2022-12-31T19:11:17.129Z,6.90
2022-12-31T19:14:40.864Z,13.60
2022-12-31T19:18:41.061Z,6.60
2022-12-31T19:22:04.761Z,8.30
2022-12-31T19:26:00.890Z,11.40
2022-12-31T19:29:26.750Z,11.10
2022-12-31T19:33:02.113Z,7.80
2022-12-31T19:36:44.038Z,10.90
2022-12-31T19:40:23.820Z,6.20
2022-12-31T19:43:55.132Z,9.50
2022-12-31T19:47:35.513Z,9.70
2022-12-31T19:51:15.276Z,7.50
2022-12-31T19:54:48.184Z,6.70
2022-12-31T19:58:28.656Z,7.90
2022-12-31T20:02:03.512Z,6.60
2022-12-31T20:05:42.927Z,11.80
2022-12-31T20:09:18.681Z,9.00
2022-12-31T20:13:18.306Z,9.10
2022-12-31T20:16:41.910Z,7.20
2022-12-31T20:20:38.636Z,6.70
2022-12-31T20:24:24.807Z,6.60
2022-12-31T20:27:48.237Z,6.80
2022-12-31T20:31:44.798Z,8.10
2022-12-31T20:35:27.350Z,8.60
2022-12-31T20:38:50.680Z,7.50
2022-12-31T20:42:28.452Z,6.00
2022-12-31T20:46:15.445Z,7.30
2022-12-31T20:53:31.970Z,7.60
2022-12-31T20:57:09.924Z,7.80
2022-12-31T21:00:51.865Z,6.60
2022-12-31T21:04:25.281Z,7.00
2022-12-31T21:08:02.723Z,5.30
2022-12-31T21:11:59.636Z,6.90
2022-12-31T21:15:23.889Z,5.90
2022-12-31T21:19:20.670Z,8.10
2022-12-31T21:22:49.525Z,6.30
2022-12-31T21:26:43.548Z,7.30
2022-12-31T21:30:22.878Z,5.50
2022-12-31T21:34:05.983Z,5.10
2022-12-31T21:37:59.022Z,6.10
2022-12-31T21:41:50.817Z,5.60
2022-12-31T21:45:33.705Z,4.70
2022-12-31T21:48:59.910Z,5.10
2022-12-31T21:52:35.242Z,4.90
2022-12-31T21:56:14.680Z,5.40
2022-12-31T22:00:44.173Z,4.80
2022-12-31T22:05:00.891Z,5.70
2022-12-31T22:08:11.000Z,4.80
2022-12-31T22:12:07.754Z,5.10
2022-12-31T22:15:58.696Z,4.90
2022-12-31T22:19:24.763Z,3.90
2022-12-31T22:23:01.528Z,4.90
2022-12-31T22:26:59.693Z,6.70
2022-12-31T22:30:42.690Z,5.00
2022-12-31T22:34:21.086Z,4.60
2022-12-31T22:38:02.407Z,4.80
2022-12-31T22:41:36.163Z,4.50
2022-12-31T22:45:13.711Z,4.50
2022-12-31T22:48:53.098Z,4.50
2022-12-31T22:52:28.935Z,4.60
2022-12-31T22:56:08.141Z,4.80
2022-12-31T22:59:44.358Z,4.80
2022-12-31T23:03:22.595Z,5.00
2022-12-31T23:06:59.925Z,4.80
2022-12-31T23:11:04.873Z,6.60
2022-12-31T23:15:05.515Z,6.40
2022-12-31T23:19:06.531Z,7.60
2022-12-31T23:23:07.760Z,5.80
2022-12-31T23:26:31.588Z,5.60
2022-12-31T23:30:09.446Z,6.20
2022-12-31T23:33:46.822Z,5.20
2022-12-31T23:37:24.259Z,5.30
2022-12-31T23:41:12.543Z,5.60
2022-12-31T23:44:39.787Z,5.50
2022-12-31T23:48:18.037Z,4.10
2022-12-31T23:51:55.145Z,4.50
2022-12-31T23:55:32.998Z,5.20
2022-12-31T23:59:11.951Z,5.40
